sensor_id;sensor_type;location;lat;lon;timestamp;temperature;humidity
10095;DHT22;5086;50.830;7.102;2023-05-10T00:02:15;13.70;99.90
10095;DHT22;5086;50.830;7.102;2023-05-10T00:04:43;13.70;99.90
10095;DHT22;5086;50.830;7.102;2023-05-10T00:07:10;13.80;99.90
10095;DHT22;5086;50.830;7.102;2023-05-10T00:09:39;13.70;99.90
10095;DHT22;5086;50.830;7.102;2023-05-10T00:12:07;13.70;99.90
10095;DHT22;5086;50.830;7.102;2023-05-10T00:14:40;13.70;99.90
10095;DHT22;5086;50.830;7.102;2023-05-10T00:17:10;13.70;99.90
10095;DHT22;5086;50.830;7.102;2023-05-10T00:19:55;13.70;99.90
10095;DHT22;5086;50.830;7.102;2023-05-10T00:22:26;13.70;99.90
10095;DHT22;5086;50.830;7.102;2023-05-10T00:24:54;13.70;99.90
10095;DHT22;5086;50.830;7.102;2023-05-10T00:27:22;13.70;99.90
10095;DHT22;5086;50.830;7.102;2023-05-10T00:29:51;13.80;99.90
10095;DHT22;5086;50.830;7.102;2023-05-10T00:32:20;13.80;99.90
10095;DHT22;5086;50.830;7.102;2023-05-10T00:34:47;13.80;99.90
10095;DHT22;5086;50.830;7.102;2023-05-10T00:37:17;13.80;99.90
10095;DHT22;5086;50.830;7.102;2023-05-10T00:39:44;13.80;99.90
10095;DHT22;5086;50.830;7.102;2023-05-10T00:42:11;13.80;99.90
10095;DHT22;5086;50.830;7.102;2023-05-10T00:44:43;13.70;99.90
10095;DHT22;5086;50.830;7.102;2023-05-10T00:47:10;13.70;99.90
10095;DHT22;5086;50.830;7.102;2023-05-10T00:49:37;13.70;99.90
10095;DHT22;5086;50.830;7.102;2023-05-10T00:52:06;13.70;99.90
10095;DHT22;5086;50.830;7.102;2023-05-10T00:54:37;13.70;99.90
10095;DHT22;5086;50.830;7.102;2023-05-10T00:57:07;13.70;99.90
10095;DHT22;5086;50.830;7.102;2023-05-10T00:59:39;13.60;99.90
10095;DHT22;5086;50.830;7.102;2023-05-10T01:02:06;13.70;99.90
10095;DHT22;5086;50.830;7.102;2023-05-10T01:04:38;13.70;99.90
10095;DHT22;5086;50.830;7.102;2023-05-10T01:07:10;13.80;99.90
10095;DHT22;5086;50.830;7.102;2023-05-10T01:09:52;13.70;99.90
10095;DHT22;5086;50.830;7.102;2023-05-10T01:12:22;13.70;99.90
10095;DHT22;5086;50.830;7.102;2023-05-10T01:14:49;13.70;99.90
10095;DHT22;5086;50.830;7.102;2023-05-10T01:17:16;13.70;99.90
10095;DHT22;5086;50.830;7.102;2023-05-10T01:19:43;13.70;99.90
10095;DHT22;5086;50.830;7.102;2023-05-10T01:22:25;13.70;99.90
10095;DHT22;5086;50.830;7.102;2023-05-10T01:25:19;13.70;99.90
10095;DHT22;5086;50.830;7.102;2023-05-10T01:28:26;13.70;99.90
10095;DHT22;5086;50.830;7.102;2023-05-10T01:34:23;13.80;99.90
10095;DHT22;5086;50.830;7.102;2023-05-10T01:37:10;13.80;99.90
10095;DHT22;5086;50.830;7.102;2023-05-10T01:39:45;13.80;99.90
10095;DHT22;5086;50.830;7.102;2023-05-10T01:42:17;13.70;99.90
10095;DHT22;5086;50.830;7.102;2023-05-10T01:45:10;13.70;99.90
10095;DHT22;5086;50.830;7.102;2023-05-10T01:47:50;13.70;99.90
10095;DHT22;5086;50.830;7.102;2023-05-10T01:50:23;13.70;99.90
10095;DHT22;5086;50.830;7.102;2023-05-10T01:53:02;13.70;99.90
10095;DHT22;5086;50.830;7.102;2023-05-10T01:55:38;13.70;99.90
10095;DHT22;5086;50.830;7.102;2023-05-10T01:58:08;13.60;99.90
10095;DHT22;5086;50.830;7.102;2023-05-10T02:00:43;13.60;99.90
10095;DHT22;5086;50.830;7.102;2023-05-10T02:03:12;13.60;99.90
10095;DHT22;5086;50.830;7.102;2023-05-10T02:05:48;13.60;99.90
10095;DHT22;5086;50.830;7.102;2023-05-10T02:08:19;13.60;99.90
10095;DHT22;5086;50.830;7.102;2023-05-10T02:10:52;13.60;99.90
10095;DHT22;5086;50.830;7.102;2023-05-10T02:13:30;13.60;99.90
10095;DHT22;5086;50.830;7.102;2023-05-10T02:15:59;13.60;99.90
10095;DHT22;5086;50.830;7.102;2023-05-10T02:18:36;13.60;99.90
10095;DHT22;5086;50.830;7.102;2023-05-10T02:21:05;13.60;99.90
10095;DHT22;5086;50.830;7.102;2023-05-10T02:23:35;13.60;99.90
10095;DHT22;5086;50.830;7.102;2023-05-10T02:26:03;13.60;99.90
10095;DHT22;5086;50.830;7.102;2023-05-10T02:28:32;13.60;99.90
10095;DHT22;5086;50.830;7.102;2023-05-10T02:31:00;13.60;99.90
10095;DHT22;5086;50.830;7.102;2023-05-10T02:33:28;13.60;99.90
10095;DHT22;5086;50.830;7.102;2023-05-10T02:35:56;13.60;99.90
10095;DHT22;5086;50.830;7.102;2023-05-10T02:38:25;13.60;99.90
10095;DHT22;5086;50.830;7.102;2023-05-10T02:40:55;13.60;99.90
10095;DHT22;5086;50.830;7.102;2023-05-10T02:43:23;13.60;99.90
10095;DHT22;5086;50.830;7.102;2023-05-10T02:45:51;13.60;99.90
10095;DHT22;5086;50.830;7.102;2023-05-10T02:48:18;13.60;99.90
10095;DHT22;5086;50.830;7.102;2023-05-10T02:50:48;13.60;99.90
10095;DHT22;5086;50.830;7.102;2023-05-10T02:53:22;13.60;99.90
10095;DHT22;5086;50.830;7.102;2023-05-10T02:55:53;13.60;99.90
10095;DHT22;5086;50.830;7.102;2023-05-10T02:58:30;13.50;99.90
10095;DHT22;5086;50.830;7.102;2023-05-10T03:00:57;13.60;99.90
10095;DHT22;5086;50.830;7.102;2023-05-10T03:03:24;13.60;99.90
10095;DHT22;5086;50.830;7.102;2023-05-10T03:05:51;13.60;99.90
10095;DHT22;5086;50.830;7.102;2023-05-10T03:08:35;13.60;99.90
10095;DHT22;5086;50.830;7.102;2023-05-10T03:11:22;13.60;99.90
10095;DHT22;5086;50.830;7.102;2023-05-10T03:14:12;13.60;99.90
10095;DHT22;5086;50.830;7.102;2023-05-10T03:16:46;13.60;99.90
10095;DHT22;5086;50.830;7.102;2023-05-10T03:19:17;13.50;99.90
10095;DHT22;5086;50.830;7.102;2023-05-10T03:21:52;13.60;99.90
10095;DHT22;5086;50.830;7.102;2023-05-10T03:24:22;13.60;99.90
10095;DHT22;5086;50.830;7.102;2023-05-10T03:26:53;13.60;99.90
10095;DHT22;5086;50.830;7.102;2023-05-10T03:29:23;13.60;99.90
10095;DHT22;5086;50.830;7.102;2023-05-10T03:31:51;13.60;99.90
10095;DHT22;5086;50.830;7.102;2023-05-10T03:34:23;13.60;99.90
10095;DHT22;5086;50.830;7.102;2023-05-10T03:36:53;13.60;99.90
10095;DHT22;5086;50.830;7.102;2023-05-10T03:39:20;13.60;99.90
10095;DHT22;5086;50.830;7.102;2023-05-10T03:41:47;13.60;99.90
10095;DHT22;5086;50.830;7.102;2023-05-10T03:44:16;13.60;99.90
10095;DHT22;5086;50.830;7.102;2023-05-10T03:46:42;13.60;99.90
10095;DHT22;5086;50.830;7.102;2023-05-10T03:49:12;13.60;99.90
10095;DHT22;5086;50.830;7.102;2023-05-10T03:51:39;13.60;99.90
10095;DHT22;5086;50.830;7.102;2023-05-10T03:54:09;13.60;99.90
10095;DHT22;5086;50.830;7.102;2023-05-10T03:56:39;13.60;99.90
10095;DHT22;5086;50.830;7.102;2023-05-10T03:59:05;13.50;99.90
10095;DHT22;5086;50.830;7.102;2023-05-10T04:01:38;13.60;99.90
10095;DHT22;5086;50.830;7.102;2023-05-10T04:04:05;13.60;99.90
10095;DHT22;5086;50.830;7.102;2023-05-10T04:06:31;13.50;99.90
10095;DHT22;5086;50.830;7.102;2023-05-10T04:08:58;13.50;99.90
10095;DHT22;5086;50.830;7.102;2023-05-10T04:11:29;13.50;99.90
10095;DHT22;5086;50.830;7.102;2023-05-10T04:13:56;13.60;99.90
10095;DHT22;5086;50.830;7.102;2023-05-10T04:16:23;13.60;99.90
10095;DHT22;5086;50.830;7.102;2023-05-10T04:18:51;13.50;99.90
10095;DHT22;5086;50.830;7.102;2023-05-10T04:21:18;13.60;99.90
10095;DHT22;5086;50.830;7.102;2023-05-10T04:23:45;13.50;99.90
10095;DHT22;5086;50.830;7.102;2023-05-10T04:26:12;13.50;99.90
10095;DHT22;5086;50.830;7.102;2023-05-10T04:28:40;13.50;99.90
10095;DHT22;5086;50.830;7.102;2023-05-10T04:31:09;13.60;99.90
10095;DHT22;5086;50.830;7.102;2023-05-10T04:33:38;13.60;99.90
10095;DHT22;5086;50.830;7.102;2023-05-10T04:36:07;13.50;99.90
10095;DHT22;5086;50.830;7.102;2023-05-10T04:38:34;13.50;99.90
10095;DHT22;5086;50.830;7.102;2023-05-10T04:41:04;13.50;99.90
10095;DHT22;5086;50.830;7.102;2023-05-10T04:43:34;13.50;99.90
10095;DHT22;5086;50.830;7.102;2023-05-10T04:46:02;13.50;99.90
10095;DHT22;5086;50.830;7.102;2023-05-10T04:48:49;13.50;99.90
10095;DHT22;5086;50.830;7.102;2023-05-10T04:51:34;13.50;99.90
10095;DHT22;5086;50.830;7.102;2023-05-10T04:54:07;13.50;99.90
10095;DHT22;5086;50.830;7.102;2023-05-10T04:56:36;13.50;99.90
10095;DHT22;5086;50.830;7.102;2023-05-10T04:59:03;13.60;99.90
10095;DHT22;5086;50.830;7.102;2023-05-10T05:01:30;13.60;99.90
10095;DHT22;5086;50.830;7.102;2023-05-10T05:04:10;13.60;99.90
10095;DHT22;5086;50.830;7.102;2023-05-10T05:06:44;13.70;99.90
10095;DHT22;5086;50.830;7.102;2023-05-10T05:09:13;13.70;99.90
10095;DHT22;5086;50.830;7.102;2023-05-10T05:11:40;13.80;99.90
10095;DHT22;5086;50.830;7.102;2023-05-10T05:14:07;13.80;99.90
10095;DHT22;5086;50.830;7.102;2023-05-10T05:16:34;13.80;99.90
10095;DHT22;5086;50.830;7.102;2023-05-10T05:19:04;13.80;99.90
10095;DHT22;5086;50.830;7.102;2023-05-10T05:21:31;13.90;99.90
10095;DHT22;5086;50.830;7.102;2023-05-10T05:24:00;13.80;99.90
10095;DHT22;5086;50.830;7.102;2023-05-10T05:26:37;13.80;99.90
10095;DHT22;5086;50.830;7.102;2023-05-10T05:29:04;13.80;99.90
10095;DHT22;5086;50.830;7.102;2023-05-10T05:31:32;13.80;99.90
10095;DHT22;5086;50.830;7.102;2023-05-10T05:33:59;13.80;99.90
10095;DHT22;5086;50.830;7.102;2023-05-10T05:36:27;13.80;99.90
10095;DHT22;5086;50.830;7.102;2023-05-10T05:38:54;13.80;99.90
10095;DHT22;5086;50.830;7.102;2023-05-10T05:41:23;13.80;99.90
10095;DHT22;5086;50.830;7.102;2023-05-10T05:43:56;13.80;99.90
10095;DHT22;5086;50.830;7.102;2023-05-10T05:46:24;13.80;99.90
10095;DHT22;5086;50.830;7.102;2023-05-10T05:48:51;13.80;99.90
10095;DHT22;5086;50.830;7.102;2023-05-10T05:51:18;13.80;99.90
10095;DHT22;5086;50.830;7.102;2023-05-10T05:53:45;13.80;99.90
10095;DHT22;5086;50.830;7.102;2023-05-10T05:56:12;13.80;99.90
10095;DHT22;5086;50.830;7.102;2023-05-10T05:58:42;13.80;99.90
10095;DHT22;5086;50.830;7.102;2023-05-10T06:01:09;13.80;99.90
10095;DHT22;5086;50.830;7.102;2023-05-10T06:03:35;13.80;99.90
10095;DHT22;5086;50.830;7.102;2023-05-10T06:06:04;13.90;99.90
10095;DHT22;5086;50.830;7.102;2023-05-10T06:08:31;13.90;99.90
10095;DHT22;5086;50.830;7.102;2023-05-10T06:11:01;13.90;99.90
10095;DHT22;5086;50.830;7.102;2023-05-10T06:13:29;14.00;99.90
10095;DHT22;5086;50.830;7.102;2023-05-10T06:16:11;14.00;99.90
10095;DHT22;5086;50.830;7.102;2023-05-10T06:18:38;14.00;99.90
10095;DHT22;5086;50.830;7.102;2023-05-10T06:21:05;14.00;99.90
10095;DHT22;5086;50.830;7.102;2023-05-10T06:23:33;14.10;99.90
10095;DHT22;5086;50.830;7.102;2023-05-10T06:26:00;14.10;99.90
10095;DHT22;5086;50.830;7.102;2023-05-10T06:28:26;14.00;99.90
10095;DHT22;5086;50.830;7.102;2023-05-10T06:30:53;14.10;99.90
10095;DHT22;5086;50.830;7.102;2023-05-10T06:33:21;14.10;99.90
10095;DHT22;5086;50.830;7.102;2023-05-10T06:35:48;14.10;99.90
10095;DHT22;5086;50.830;7.102;2023-05-10T06:38:15;14.20;99.90
10095;DHT22;5086;50.830;7.102;2023-05-10T06:40:42;14.30;99.90
10095;DHT22;5086;50.830;7.102;2023-05-10T06:43:09;14.30;99.90
10095;DHT22;5086;50.830;7.102;2023-05-10T06:45:37;14.40;99.90
10095;DHT22;5086;50.830;7.102;2023-05-10T06:48:11;14.30;99.90
10095;DHT22;5086;50.830;7.102;2023-05-10T06:50:42;14.30;99.90
10095;DHT22;5086;50.830;7.102;2023-05-10T06:53:09;14.20;99.90
10095;DHT22;5086;50.830;7.102;2023-05-10T06:55:37;14.20;99.90
10095;DHT22;5086;50.830;7.102;2023-05-10T06:58:03;14.20;99.90
10095;DHT22;5086;50.830;7.102;2023-05-10T07:00:31;14.10;99.90
10095;DHT22;5086;50.830;7.102;2023-05-10T07:02:58;14.00;99.90
10095;DHT22;5086;50.830;7.102;2023-05-10T07:05:25;14.00;99.90
10095;DHT22;5086;50.830;7.102;2023-05-10T07:07:55;13.90;99.90
10095;DHT22;5086;50.830;7.102;2023-05-10T07:10:22;14.00;99.90
10095;DHT22;5086;50.830;7.102;2023-05-10T07:12:54;14.00;99.90
10095;DHT22;5086;50.830;7.102;2023-05-10T07:15:21;13.90;99.90
10095;DHT22;5086;50.830;7.102;2023-05-10T07:17:48;14.00;99.90
10095;DHT22;5086;50.830;7.102;2023-05-10T07:20:15;13.90;99.90
10095;DHT22;5086;50.830;7.102;2023-05-10T07:22:42;14.00;99.90
10095;DHT22;5086;50.830;7.102;2023-05-10T07:25:10;14.00;99.90
10095;DHT22;5086;50.830;7.102;2023-05-10T07:27:37;14.00;99.90
10095;DHT22;5086;50.830;7.102;2023-05-10T07:30:36;14.00;99.90
10095;DHT22;5086;50.830;7.102;2023-05-10T07:33:03;14.00;99.90
10095;DHT22;5086;50.830;7.102;2023-05-10T07:35:30;14.00;99.90
10095;DHT22;5086;50.830;7.102;2023-05-10T07:37:57;14.00;99.90
10095;DHT22;5086;50.830;7.102;2023-05-10T07:40:42;14.10;99.90
10095;DHT22;5086;50.830;7.102;2023-05-10T07:43:23;14.10;99.90
10095;DHT22;5086;50.830;7.102;2023-05-10T07:46:21;14.00;99.90
10095;DHT22;5086;50.830;7.102;2023-05-10T07:48:54;14.00;99.90
10095;DHT22;5086;50.830;7.102;2023-05-10T07:51:34;14.00;99.90
10095;DHT22;5086;50.830;7.102;2023-05-10T07:54:08;14.00;99.90
10095;DHT22;5086;50.830;7.102;2023-05-10T07:56:44;14.10;99.90
10095;DHT22;5086;50.830;7.102;2023-05-10T07:59:16;14.10;99.90
10095;DHT22;5086;50.830;7.102;2023-05-10T08:01:52;14.10;99.90
10095;DHT22;5086;50.830;7.102;2023-05-10T08:04:34;14.20;99.90
10095;DHT22;5086;50.830;7.102;2023-05-10T08:07:18;14.20;99.90
10095;DHT22;5086;50.830;7.102;2023-05-10T08:10:12;14.20;99.90
10095;DHT22;5086;50.830;7.102;2023-05-10T08:13:06;14.40;99.90
10095;DHT22;5086;50.830;7.102;2023-05-10T08:15:33;14.50;99.90
10095;DHT22;5086;50.830;7.102;2023-05-10T08:18:03;14.60;99.90
10095;DHT22;5086;50.830;7.102;2023-05-10T08:20:30;14.60;99.90
10095;DHT22;5086;50.830;7.102;2023-05-10T08:22:59;14.80;99.90
10095;DHT22;5086;50.830;7.102;2023-05-10T08:38:14;15.10;99.90
10095;DHT22;5086;50.830;7.102;2023-05-10T08:41:05;15.10;99.90
10095;DHT22;5086;50.830;7.102;2023-05-10T08:47:12;15.20;99.90
10095;DHT22;5086;50.830;7.102;2023-05-10T08:56:50;16.70;99.90
10095;DHT22;5086;50.830;7.102;2023-05-10T08:59:39;16.90;99.90
10095;DHT22;5086;50.830;7.102;2023-05-10T09:02:13;16.80;99.90
10095;DHT22;5086;50.830;7.102;2023-05-10T09:04:43;16.50;99.90
10095;DHT22;5086;50.830;7.102;2023-05-10T09:07:14;16.30;99.90
10095;DHT22;5086;50.830;7.102;2023-05-10T09:09:55;16.20;99.90
10095;DHT22;5086;50.830;7.102;2023-05-10T09:12:27;15.80;99.90
10095;DHT22;5086;50.830;7.102;2023-05-10T09:14:57;15.60;99.90
10095;DHT22;5086;50.830;7.102;2023-05-10T09:17:27;15.40;99.90
10095;DHT22;5086;50.830;7.102;2023-05-10T09:19:58;15.40;99.90
10095;DHT22;5086;50.830;7.102;2023-05-10T09:22:26;15.50;99.90
10095;DHT22;5086;50.830;7.102;2023-05-10T09:25:04;15.60;99.90
10095;DHT22;5086;50.830;7.102;2023-05-10T09:27:33;15.90;99.90
10095;DHT22;5086;50.830;7.102;2023-05-10T09:30:00;16.00;99.90
10095;DHT22;5086;50.830;7.102;2023-05-10T09:32:38;16.30;99.90
10095;DHT22;5086;50.830;7.102;2023-05-10T09:35:08;16.30;99.90
10095;DHT22;5086;50.830;7.102;2023-05-10T09:37:35;16.50;99.90
10095;DHT22;5086;50.830;7.102;2023-05-10T09:40:07;16.40;99.90
10095;DHT22;5086;50.830;7.102;2023-05-10T09:42:52;16.40;99.90
10095;DHT22;5086;50.830;7.102;2023-05-10T09:45:19;16.20;99.90
10095;DHT22;5086;50.830;7.102;2023-05-10T09:48:15;16.10;99.90
10095;DHT22;5086;50.830;7.102;2023-05-10T09:50:57;15.80;99.90
10095;DHT22;5086;50.830;7.102;2023-05-10T09:53:24;15.60;99.90
10095;DHT22;5086;50.830;7.102;2023-05-10T09:55:51;15.50;99.90
10095;DHT22;5086;50.830;7.102;2023-05-10T09:58:19;15.40;99.90
10095;DHT22;5086;50.830;7.102;2023-05-10T10:00:47;15.30;99.90
10095;DHT22;5086;50.830;7.102;2023-05-10T10:03:18;15.40;99.90
10095;DHT22;5086;50.830;7.102;2023-05-10T10:05:47;15.40;99.90
10095;DHT22;5086;50.830;7.102;2023-05-10T10:08:14;15.50;99.90
10095;DHT22;5086;50.830;7.102;2023-05-10T10:10:42;15.60;99.90
10095;DHT22;5086;50.830;7.102;2023-05-10T10:13:21;15.60;99.90
10095;DHT22;5086;50.830;7.102;2023-05-10T10:15:49;15.60;99.90
10095;DHT22;5086;50.830;7.102;2023-05-10T10:18:17;15.60;99.90
10095;DHT22;5086;50.830;7.102;2023-05-10T10:20:48;15.60;99.90
10095;DHT22;5086;50.830;7.102;2023-05-10T10:23:20;15.80;99.90
10095;DHT22;5086;50.830;7.102;2023-05-10T10:25:47;15.90;99.90
10095;DHT22;5086;50.830;7.102;2023-05-10T10:28:24;16.00;99.90
10095;DHT22;5086;50.830;7.102;2023-05-10T10:30:55;16.20;99.90
10095;DHT22;5086;50.830;7.102;2023-05-10T10:33:33;16.40;99.90
10095;DHT22;5086;50.830;7.102;2023-05-10T10:36:03;16.60;99.90
10095;DHT22;5086;50.830;7.102;2023-05-10T10:38:38;16.50;99.90
10095;DHT22;5086;50.830;7.102;2023-05-10T10:41:29;16.70;99.90
10095;DHT22;5086;50.830;7.102;2023-05-10T10:44:23;16.70;99.90
10095;DHT22;5086;50.830;7.102;2023-05-10T10:49:50;17.00;99.90
10095;DHT22;5086;50.830;7.102;2023-05-10T10:52:25;16.90;99.90
10095;DHT22;5086;50.830;7.102;2023-05-10T10:54:59;16.80;99.90
10095;DHT22;5086;50.830;7.102;2023-05-10T10:57:27;16.60;99.90
10095;DHT22;5086;50.830;7.102;2023-05-10T11:03:09;16.10;99.90
10095;DHT22;5086;50.830;7.102;2023-05-10T11:05:43;16.00;99.90
10095;DHT22;5086;50.830;7.102;2023-05-10T11:08:16;16.10;99.90
10095;DHT22;5086;50.830;7.102;2023-05-10T11:10:51;16.40;99.90
10095;DHT22;5086;50.830;7.102;2023-05-10T11:13:27;16.60;99.90
10095;DHT22;5086;50.830;7.102;2023-05-10T11:16:14;16.70;99.90
10095;DHT22;5086;50.830;7.102;2023-05-10T11:18:57;17.10;99.90
10095;DHT22;5086;50.830;7.102;2023-05-10T11:21:27;17.20;99.90
10095;DHT22;5086;50.830;7.102;2023-05-10T11:23:59;17.30;99.90
10095;DHT22;5086;50.830;7.102;2023-05-10T11:26:32;17.30;99.90
10095;DHT22;5086;50.830;7.102;2023-05-10T11:29:05;17.40;99.90
10095;DHT22;5086;50.830;7.102;2023-05-10T11:31:32;17.60;99.90
10095;DHT22;5086;50.830;7.102;2023-05-10T11:34:36;17.60;99.90
10095;DHT22;5086;50.830;7.102;2023-05-10T11:37:17;17.60;99.90
10095;DHT22;5086;50.830;7.102;2023-05-10T11:40:01;17.60;99.90
10095;DHT22;5086;50.830;7.102;2023-05-10T11:42:45;17.60;99.90
10095;DHT22;5086;50.830;7.102;2023-05-10T11:45:16;17.80;99.90
10095;DHT22;5086;50.830;7.102;2023-05-10T11:47:43;18.30;99.90
10095;DHT22;5086;50.830;7.102;2023-05-10T11:56:51;19.00;99.90
10095;DHT22;5086;50.830;7.102;2023-05-10T12:03:07;18.60;99.90
10095;DHT22;5086;50.830;7.102;2023-05-10T12:05:39;18.70;99.90
10095;DHT22;5086;50.830;7.102;2023-05-10T12:08:19;18.50;99.90
10095;DHT22;5086;50.830;7.102;2023-05-10T12:19:47;18.50;99.90
10095;DHT22;5086;50.830;7.102;2023-05-10T12:22:20;18.50;99.90
10095;DHT22;5086;50.830;7.102;2023-05-10T12:24:51;18.30;99.90
10095;DHT22;5086;50.830;7.102;2023-05-10T12:30:57;18.10;99.90
10095;DHT22;5086;50.830;7.102;2023-05-10T12:33:36;18.10;99.90
10095;DHT22;5086;50.830;7.102;2023-05-10T12:36:07;18.30;99.90
10095;DHT22;5086;50.830;7.102;2023-05-10T12:38:35;18.60;99.90
10095;DHT22;5086;50.830;7.102;2023-05-10T12:41:20;18.70;99.90
10095;DHT22;5086;50.830;7.102;2023-05-10T12:43:59;18.80;99.90
10095;DHT22;5086;50.830;7.102;2023-05-10T12:46:33;19.10;99.90
10095;DHT22;5086;50.830;7.102;2023-05-10T12:49:34;19.30;99.90
10095;DHT22;5086;50.830;7.102;2023-05-10T12:51:55;19.10;99.90
10095;DHT22;5086;50.830;7.102;2023-05-10T12:54:34;18.90;99.90
10095;DHT22;5086;50.830;7.102;2023-05-10T12:57:02;18.60;99.90
10095;DHT22;5086;50.830;7.102;2023-05-10T12:59:29;18.50;99.90
10095;DHT22;5086;50.830;7.102;2023-05-10T13:02:10;18.50;99.90
10095;DHT22;5086;50.830;7.102;2023-05-10T13:04:37;18.70;99.90
10095;DHT22;5086;50.830;7.102;2023-05-10T13:07:06;19.00;99.90
10095;DHT22;5086;50.830;7.102;2023-05-10T13:09:33;19.00;99.90
10095;DHT22;5086;50.830;7.102;2023-05-10T13:12:00;18.80;99.90
10095;DHT22;5086;50.830;7.102;2023-05-10T13:14:29;18.90;99.90
10095;DHT22;5086;50.830;7.102;2023-05-10T13:16:56;18.90;99.90
10095;DHT22;5086;50.830;7.102;2023-05-10T13:19:23;18.90;99.90
10095;DHT22;5086;50.830;7.102;2023-05-10T13:21:50;18.70;99.90
10095;DHT22;5086;50.830;7.102;2023-05-10T13:24:18;18.70;99.90
10095;DHT22;5086;50.830;7.102;2023-05-10T13:26:47;18.40;99.90
10095;DHT22;5086;50.830;7.102;2023-05-10T13:29:14;18.50;99.90
10095;DHT22;5086;50.830;7.102;2023-05-10T13:31:43;18.30;99.90
10095;DHT22;5086;50.830;7.102;2023-05-10T13:34:16;18.20;99.90
10095;DHT22;5086;50.830;7.102;2023-05-10T13:36:48;18.00;99.90
10095;DHT22;5086;50.830;7.102;2023-05-10T13:39:15;18.00;99.90
10095;DHT22;5086;50.830;7.102;2023-05-10T13:41:43;17.80;99.90
10095;DHT22;5086;50.830;7.102;2023-05-10T13:44:12;17.80;99.90
10095;DHT22;5086;50.830;7.102;2023-05-10T13:46:39;17.80;99.90
10095;DHT22;5086;50.830;7.102;2023-05-10T13:49:06;17.80;99.90
10095;DHT22;5086;50.830;7.102;2023-05-10T13:51:33;17.80;99.90
10095;DHT22;5086;50.830;7.102;2023-05-10T13:54:09;17.90;99.90
10095;DHT22;5086;50.830;7.102;2023-05-10T13:56:36;18.00;99.90
10095;DHT22;5086;50.830;7.102;2023-05-10T13:59:05;17.80;99.90
10095;DHT22;5086;50.830;7.102;2023-05-10T14:01:36;17.80;99.90
10095;DHT22;5086;50.830;7.102;2023-05-10T14:04:05;17.60;99.90
10095;DHT22;5086;50.830;7.102;2023-05-10T14:06:32;17.60;99.90
10095;DHT22;5086;50.830;7.102;2023-05-10T14:08:59;17.40;99.90
10095;DHT22;5086;50.830;7.102;2023-05-10T14:11:26;17.30;99.90
10095;DHT22;5086;50.830;7.102;2023-05-10T14:13:53;17.20;99.90
10095;DHT22;5086;50.830;7.102;2023-05-10T14:16:22;17.20;99.90
10095;DHT22;5086;50.830;7.102;2023-05-10T14:18:50;17.20;99.90
10095;DHT22;5086;50.830;7.102;2023-05-10T14:21:17;17.30;99.90
10095;DHT22;5086;50.830;7.102;2023-05-10T14:23:50;17.30;99.90
10095;DHT22;5086;50.830;7.102;2023-05-10T14:26:17;17.30;99.90
10095;DHT22;5086;50.830;7.102;2023-05-10T14:28:45;17.40;99.90
10095;DHT22;5086;50.830;7.102;2023-05-10T14:31:14;17.40;99.90
10095;DHT22;5086;50.830;7.102;2023-05-10T14:33:43;17.50;99.90
10095;DHT22;5086;50.830;7.102;2023-05-10T14:36:10;17.50;99.90
10095;DHT22;5086;50.830;7.102;2023-05-10T14:38:37;17.40;99.90
10095;DHT22;5086;50.830;7.102;2023-05-10T14:41:04;17.50;99.90
10095;DHT22;5086;50.830;7.102;2023-05-10T14:43:31;17.40;99.90
10095;DHT22;5086;50.830;7.102;2023-05-10T14:45:58;17.30;99.90
10095;DHT22;5086;50.830;7.102;2023-05-10T14:48:25;17.30;99.90
10095;DHT22;5086;50.830;7.102;2023-05-10T14:50:56;17.40;99.90
10095;DHT22;5086;50.830;7.102;2023-05-10T14:53:29;17.40;99.90
10095;DHT22;5086;50.830;7.102;2023-05-10T14:55:56;17.20;99.90
10095;DHT22;5086;50.830;7.102;2023-05-10T14:58:25;17.20;99.90
10095;DHT22;5086;50.830;7.102;2023-05-10T15:00:53;17.10;99.90
10095;DHT22;5086;50.830;7.102;2023-05-10T15:03:20;17.10;99.90
10095;DHT22;5086;50.830;7.102;2023-05-10T15:06:00;17.20;99.90
10095;DHT22;5086;50.830;7.102;2023-05-10T15:08:31;17.40;99.90
10095;DHT22;5086;50.830;7.102;2023-05-10T15:11:07;17.60;99.90
10095;DHT22;5086;50.830;7.102;2023-05-10T15:13:37;18.00;99.90
10095;DHT22;5086;50.830;7.102;2023-05-10T15:16:27;18.40;99.90
10095;DHT22;5086;50.830;7.102;2023-05-10T15:18:58;18.70;99.90
10095;DHT22;5086;50.830;7.102;2023-05-10T15:21:32;18.70;99.90
10095;DHT22;5086;50.830;7.102;2023-05-10T15:24:36;18.70;99.90
10095;DHT22;5086;50.830;7.102;2023-05-10T15:27:30;18.60;99.90
10095;DHT22;5086;50.830;7.102;2023-05-10T15:30:31;18.50;99.90
10095;DHT22;5086;50.830;7.102;2023-05-10T15:33:00;18.40;99.90
10095;DHT22;5086;50.830;7.102;2023-05-10T15:35:40;18.30;99.90
10095;DHT22;5086;50.830;7.102;2023-05-10T15:38:12;18.10;99.90
10095;DHT22;5086;50.830;7.102;2023-05-10T15:40:47;17.90;99.90
10095;DHT22;5086;50.830;7.102;2023-05-10T15:43:40;17.80;99.90
10095;DHT22;5086;50.830;7.102;2023-05-10T15:46:08;17.60;99.90
10095;DHT22;5086;50.830;7.102;2023-05-10T15:49:04;17.40;99.90
10095;DHT22;5086;50.830;7.102;2023-05-10T15:51:51;17.20;99.90
10095;DHT22;5086;50.830;7.102;2023-05-10T15:54:21;17.10;99.90
10095;DHT22;5086;50.830;7.102;2023-05-10T15:57:19;17.00;99.90
10095;DHT22;5086;50.830;7.102;2023-05-10T15:59:54;16.80;99.90
10095;DHT22;5086;50.830;7.102;2023-05-10T16:02:51;16.60;99.90
10095;DHT22;5086;50.830;7.102;2023-05-10T16:05:27;16.40;99.90
10095;DHT22;5086;50.830;7.102;2023-05-10T16:08:00;16.30;99.90
10095;DHT22;5086;50.830;7.102;2023-05-10T16:10:38;16.20;99.90
10095;DHT22;5086;50.830;7.102;2023-05-10T16:13:11;16.10;99.90
10095;DHT22;5086;50.830;7.102;2023-05-10T16:15:43;16.00;99.90
10095;DHT22;5086;50.830;7.102;2023-05-10T16:18:13;16.00;99.90
10095;DHT22;5086;50.830;7.102;2023-05-10T16:21:07;16.00;99.90
10095;DHT22;5086;50.830;7.102;2023-05-10T16:23:36;15.90;99.90
10095;DHT22;5086;50.830;7.102;2023-05-10T16:26:15;15.80;99.90
10095;DHT22;5086;50.830;7.102;2023-05-10T16:31:45;15.80;99.90
10095;DHT22;5086;50.830;7.102;2023-05-10T16:34:37;15.80;99.90
10095;DHT22;5086;50.830;7.102;2023-05-10T16:40:19;15.80;99.90
10095;DHT22;5086;50.830;7.102;2023-05-10T16:42:54;15.90;99.90
10095;DHT22;5086;50.830;7.102;2023-05-10T16:51:30;16.10;99.90
10095;DHT22;5086;50.830;7.102;2023-05-10T16:54:11;16.20;99.90
10095;DHT22;5086;50.830;7.102;2023-05-10T16:56:52;16.30;99.90
10095;DHT22;5086;50.830;7.102;2023-05-10T16:59:29;16.20;99.90
10095;DHT22;5086;50.830;7.102;2023-05-10T17:02:20;16.30;99.90
10095;DHT22;5086;50.830;7.102;2023-05-10T17:07:52;16.30;99.90
10095;DHT22;5086;50.830;7.102;2023-05-10T17:10:59;16.30;99.90
10095;DHT22;5086;50.830;7.102;2023-05-10T17:16:47;16.20;99.90
10095;DHT22;5086;50.830;7.102;2023-05-10T17:19:25;16.20;99.90
10095;DHT22;5086;50.830;7.102;2023-05-10T17:22:14;16.20;99.90
10095;DHT22;5086;50.830;7.102;2023-05-10T17:24:51;16.20;99.90
10095;DHT22;5086;50.830;7.102;2023-05-10T17:28:00;16.20;99.90
10095;DHT22;5086;50.830;7.102;2023-05-10T17:44:26;16.30;99.90
10095;DHT22;5086;50.830;7.102;2023-05-10T17:54:27;16.10;99.90
10095;DHT22;5086;50.830;7.102;2023-05-10T18:26:29;15.40;99.90